ROMMA est une association bénévole à but non lucratif. Votre soutien est indispensable : ADHERER à ROMMA ou FAIRE un DON

Chindrieux - (73, Savoie)

Chautagne (260 m)   Longitude: 05°50' E   Latitude: 45°49' N Station partenaire n°74
 

Détail journalier du     <<     >>

Température Precipitation Humidité Pression Vent Dir Rafale Dir. rafale Ensol.
Heure (°C) (mm) (%) (hPa) (km/h) (km/h) (min)
01:00 11.907010088N19N0
02:00 11.707210098N19NNE0
03:00 11.3073100811N26NNO0
04:00 10.607710083NO15ONO0
05:00 11.407510088NNE24NNO0
06:00 11.307610086NNO15NNE0
07:00 11.407610087NNO19N0
08:00 11.307510098N19N0
09:00 11.407410097N18NNO0
10:00 11.807210099NNO32NO0
11:00 12.1070100914NNO27NO0
12:00 12.6069101013NNO32NO0
13:00 12.9068101012NNO27NNE0
14:00 13.7066100914NNO32NNE0
15:00 15.1062100915N35N40
16:00 14.8060100914N31N10
17:00 15.6057100912N34NNE20
18:00 14.8058100912NNO34N0
19:00 13.8059101011N29N0
20:00 12.6062101112N29N0
21:00 12.1062101115N34N0
22:00 11.8065101113N34NNE0
23:00 11.4067101116N35N0
minuit 11.1067101214N37NNO0

Graphique du 11-04-2019

 

Serveur OMMA